createdAt,value
2019-05-17T00:03:14.434Z,60.69
2019-05-17T00:08:31.008Z,60.65
2019-05-17T00:13:22.832Z,60.56
2019-05-17T00:18:26.537Z,60.63
2019-05-17T00:23:29.897Z,60.66
2019-05-17T00:28:33.219Z,60.49
2019-05-17T00:33:36.796Z,60.71
2019-05-17T00:38:48.194Z,60.91
2019-05-17T00:43:46.219Z,60.78
2019-05-17T00:48:49.550Z,60.92
2019-05-17T00:53:52.878Z,60.77
2019-05-17T00:58:56.796Z,60.88
2019-05-17T01:04:00.225Z,60.94
2019-05-17T01:09:04.267Z,60.80
2019-05-17T01:14:07.599Z,60.81
2019-05-17T01:19:10.890Z,60.85
2019-05-17T01:24:14.206Z,60.72
2019-05-17T01:29:17.671Z,60.67
2019-05-17T01:34:20.907Z,60.68
2019-05-17T01:39:26.737Z,60.73
2019-05-17T01:44:29.232Z,60.76
2019-05-17T01:49:32.568Z,60.85
2019-05-17T01:54:36.303Z,60.96
2019-05-17T01:59:39.581Z,60.92
2019-05-17T02:04:42.972Z,60.68
2019-05-17T02:09:47.654Z,60.76
2019-05-17T02:14:51.047Z,60.73
2019-05-17T02:19:54.388Z,60.65
2019-05-17T02:24:57.707Z,60.63
2019-05-17T02:30:02.510Z,60.52
2019-05-17T02:35:06.346Z,60.39
2019-05-17T02:40:09.738Z,60.30
2019-05-17T02:45:13.787Z,60.25
2019-05-17T02:50:18.271Z,60.16
2019-05-17T02:55:23.359Z,60.27
2019-05-17T03:00:26.766Z,60.12
2019-05-17T03:05:33.425Z,60.11
2019-05-17T03:10:35.168Z,60.27
2019-05-17T03:15:38.481Z,60.12
2019-05-17T03:20:43.192Z,60.10
2019-05-17T03:25:46.615Z,60.13
2019-05-17T03:30:55.649Z,60.11
2019-05-17T03:35:56.907Z,60.16
2019-05-17T03:41:13.882Z,60.29
2019-05-17T03:46:05.227Z,60.36
2019-05-17T03:51:08.691Z,60.41
2019-05-17T03:56:13.357Z,60.62
2019-05-17T04:01:16.880Z,60.53
2019-05-17T04:06:23.579Z,60.14
2019-05-17T04:11:31.384Z,60.08
2019-05-17T04:16:33.668Z,60.06
2019-05-17T04:21:35.444Z,61.22
2019-05-17T04:26:38.737Z,60.98
2019-05-17T04:31:43.406Z,61.75
2019-05-17T04:36:47.099Z,61.75
2019-05-17T04:41:54.655Z,61.58
2019-05-17T04:46:55.499Z,60.81
2019-05-17T04:51:58.835Z,61.04
2019-05-17T04:57:02.766Z,60.67
2019-05-17T05:02:06.253Z,59.83
2019-05-17T05:07:09.590Z,58.85
2019-05-17T05:12:12.942Z,58.93
2019-05-17T05:17:16.277Z,58.88
2019-05-17T05:22:22.357Z,58.64
2019-05-17T05:27:24.652Z,58.62
2019-05-17T05:32:28.007Z,58.70
2019-05-17T05:37:33.118Z,57.95
2019-05-17T05:42:36.551Z,58.26
2019-05-17T05:47:41.583Z,58.44
2019-05-17T05:52:45.004Z,58.21
2019-05-17T05:57:48.349Z,58.25
2019-05-17T06:02:52.342Z,58.28
2019-05-17T06:07:55.671Z,58.17
2019-05-17T06:12:59.022Z,58.11
2019-05-17T06:18:03.111Z,58.09
2019-05-17T06:23:06.543Z,58.14
2019-05-17T06:28:11.501Z,58.28
2019-05-17T06:33:27.046Z,58.14
2019-05-17T06:38:22.279Z,58.34
2019-05-17T06:43:25.078Z,58.32
2019-05-17T06:48:28.369Z,58.58
2019-05-17T06:53:32.424Z,58.28
2019-05-17T06:58:35.902Z,58.62
2019-05-17T07:03:39.959Z,58.75
2019-05-17T07:08:43.358Z,58.66
2019-05-17T07:13:46.659Z,58.68
2019-05-17T07:18:49.966Z,58.75
2019-05-17T07:23:53.306Z,58.53
2019-05-17T07:28:56.645Z,58.14
2019-05-17T07:34:00.008Z,58.45
2019-05-17T07:39:05.242Z,58.63
2019-05-17T07:44:09.914Z,58.18
2019-05-17T07:49:13.370Z,58.63
2019-05-17T07:54:16.681Z,58.74
2019-05-17T07:59:20.061Z,58.89
2019-05-17T08:04:23.406Z,58.91
2019-05-17T08:09:26.724Z,58.73
2019-05-17T08:14:33.389Z,58.77
2019-05-17T08:19:35.124Z,58.58
2019-05-17T08:24:39.955Z,58.31
2019-05-17T08:29:43.392Z,58.19
2019-05-17T08:34:49.478Z,58.32
2019-05-17T08:39:51.747Z,58.16
2019-05-17T08:44:55.086Z,58.13
2019-05-17T08:50:00.481Z,58.55
2019-05-17T08:55:04.696Z,58.80
2019-05-17T09:00:10.536Z,58.95
2019-05-17T09:05:13.102Z,58.48
2019-05-17T09:10:16.523Z,58.73
2019-05-17T09:15:20.309Z,58.73
2019-05-17T09:20:23.827Z,58.60
2019-05-17T09:25:30.287Z,58.38
2019-05-17T09:30:33.115Z,58.16
2019-05-17T09:35:36.409Z,58.30
2019-05-17T09:40:40.430Z,58.49
2019-05-17T09:45:43.811Z,58.74
2019-05-17T09:50:47.114Z,58.73
2019-05-17T09:55:50.462Z,58.42
2019-05-17T10:00:53.764Z,58.48
2019-05-17T10:05:57.082Z,58.79
2019-05-17T10:11:08.659Z,58.80
2019-05-17T10:16:05.474Z,58.80
2019-05-17T10:21:10.502Z,58.72
2019-05-17T10:26:13.903Z,58.56
2019-05-17T10:31:19.601Z,58.70
2019-05-17T10:36:22.312Z,58.83
2019-05-17T10:41:25.663Z,58.84
2019-05-17T10:46:29.972Z,58.85
2019-05-17T10:51:33.489Z,58.83
2019-05-17T10:56:36.802Z,58.75
2019-05-17T11:01:40.133Z,58.83
2019-05-17T11:06:43.468Z,58.71
2019-05-17T11:11:46.793Z,58.67
2019-05-17T11:16:50.135Z,58.56
2019-05-17T11:21:53.472Z,58.81
2019-05-17T11:26:56.804Z,58.87
2019-05-17T11:32:00.162Z,58.93
2019-05-17T11:37:03.512Z,58.70
2019-05-17T11:42:06.840Z,58.35
2019-05-17T11:47:10.188Z,58.42
2019-05-17T11:52:13.513Z,58.59
2019-05-17T11:57:16.867Z,58.55
2019-05-17T12:02:21.558Z,58.23
2019-05-17T12:07:25.005Z,58.33
2019-05-17T12:12:28.324Z,58.11
2019-05-17T12:17:31.651Z,57.85
2019-05-17T12:22:35.001Z,57.74
2019-05-17T12:27:38.343Z,57.79
2019-05-17T12:32:41.670Z,57.78
2019-05-17T12:37:45.018Z,57.75
2019-05-17T12:42:48.355Z,57.74
2019-05-17T12:47:51.691Z,57.72
2019-05-17T12:52:55.031Z,57.75
2019-05-17T12:57:58.360Z,58.05
2019-05-17T13:03:01.691Z,57.84
2019-05-17T13:08:05.074Z,57.97
2019-05-17T13:13:09.767Z,58.05
2019-05-17T13:18:13.201Z,58.08
2019-05-17T13:23:16.551Z,58.05
2019-05-17T13:28:19.882Z,57.93
2019-05-17T13:33:23.244Z,57.89
2019-05-17T13:38:26.568Z,57.94
2019-05-17T13:43:29.916Z,57.94
2019-05-17T13:48:33.256Z,57.92
2019-05-17T13:53:36.585Z,58.07
2019-05-17T13:58:39.903Z,57.98
2019-05-17T14:03:43.286Z,58.01
2019-05-17T14:08:46.581Z,58.00
2019-05-17T14:13:49.932Z,57.83
2019-05-17T14:18:53.253Z,57.74
2019-05-17T14:23:56.574Z,57.67
2019-05-17T14:28:59.918Z,57.63
2019-05-17T14:34:03.387Z,57.77
2019-05-17T14:39:07.057Z,57.59
2019-05-17T14:44:10.379Z,56.72
2019-05-17T14:49:13.705Z,58.30
2019-05-17T14:54:17.117Z,57.66
2019-05-17T14:59:20.442Z,57.23
2019-05-17T15:04:23.776Z,56.77
2019-05-17T15:09:27.278Z,56.70
2019-05-17T15:14:30.758Z,56.68
2019-05-17T15:19:34.103Z,56.77
2019-05-17T15:24:37.516Z,56.81
2019-05-17T15:29:40.847Z,56.85
2019-05-17T15:34:44.200Z,56.69
2019-05-17T15:39:47.521Z,56.58
2019-05-17T15:44:50.874Z,56.58
2019-05-17T15:49:54.220Z,56.57
2019-05-17T15:54:57.554Z,56.54
2019-05-17T16:00:00.908Z,56.37
2019-05-17T16:05:04.689Z,56.31
2019-05-17T16:10:08.186Z,56.39
2019-05-17T16:15:11.591Z,56.43
2019-05-17T16:20:16.893Z,56.54
2019-05-17T16:25:20.035Z,56.42
2019-05-17T16:30:23.388Z,56.37
2019-05-17T16:35:26.720Z,56.34
2019-05-17T16:40:30.072Z,56.55
2019-05-17T16:45:33.418Z,57.05
2019-05-17T16:50:36.771Z,56.93
2019-05-17T16:55:40.684Z,56.76
2019-05-17T17:00:45.812Z,57.38
2019-05-17T17:05:49.302Z,57.53
2019-05-17T17:10:52.671Z,57.42
2019-05-17T17:15:56.074Z,57.65
2019-05-17T17:20:59.523Z,57.60
2019-05-17T17:26:02.949Z,57.73
2019-05-17T17:31:06.789Z,57.91
2019-05-17T17:36:10.516Z,58.43
2019-05-17T17:41:14.052Z,58.53
2019-05-17T17:46:17.387Z,58.75
2019-05-17T17:51:20.750Z,58.59
2019-05-17T17:56:24.146Z,58.47
2019-05-17T18:01:27.540Z,57.92
2019-05-17T18:06:30.881Z,57.97
2019-05-17T18:11:34.214Z,58.56
2019-05-17T18:16:37.579Z,58.47
2019-05-17T18:21:40.913Z,58.56
2019-05-17T18:26:44.260Z,58.78
2019-05-17T18:31:47.587Z,59.20
2019-05-17T18:36:50.917Z,59.37
2019-05-17T18:41:54.879Z,59.78
2019-05-17T18:46:58.350Z,59.69
2019-05-17T18:52:01.659Z,59.55
2019-05-17T18:57:05.018Z,59.65
2019-05-17T19:02:08.360Z,59.52
2019-05-17T19:07:11.691Z,59.72
2019-05-17T19:12:15.013Z,59.90
2019-05-17T19:17:18.316Z,59.79
2019-05-17T19:22:21.660Z,60.49
2019-05-17T19:27:25.047Z,60.65
2019-05-17T19:32:28.441Z,60.50
2019-05-17T19:37:31.854Z,60.39
2019-05-17T19:42:35.188Z,60.56
2019-05-17T19:47:38.523Z,60.61
2019-05-17T19:52:41.854Z,60.13
2019-05-17T19:57:45.184Z,60.04
2019-05-17T20:02:48.504Z,60.08
2019-05-17T20:07:51.859Z,60.25
2019-05-17T20:12:55.190Z,60.15
2019-05-17T20:17:58.560Z,60.19
2019-05-17T20:23:01.885Z,60.24
2019-05-17T20:28:05.215Z,60.42
2019-05-17T20:33:08.642Z,60.61
2019-05-17T20:38:11.957Z,60.68
2019-05-17T20:43:15.307Z,60.71
2019-05-17T20:48:18.655Z,60.76
2019-05-17T20:53:21.982Z,60.74
2019-05-17T20:58:25.336Z,60.72
2019-05-17T21:03:28.662Z,60.70
2019-05-17T21:08:45.166Z,60.67
2019-05-17T21:13:37.068Z,60.56
2019-05-17T21:18:40.474Z,60.58
2019-05-17T21:23:43.836Z,60.50
2019-05-17T21:28:47.426Z,60.56
2019-05-17T21:33:50.778Z,60.49
2019-05-17T21:38:54.124Z,60.69
2019-05-17T21:43:57.452Z,60.58
2019-05-17T21:49:00.795Z,60.93
2019-05-17T21:54:04.115Z,61.07
2019-05-17T21:59:07.455Z,61.02
2019-05-17T22:04:10.880Z,60.88
2019-05-17T22:09:14.488Z,60.86
2019-05-17T22:14:17.877Z,60.68
2019-05-17T22:19:21.230Z,60.58
2019-05-17T22:24:24.546Z,60.63
2019-05-17T22:29:27.874Z,60.55
2019-05-17T22:34:31.191Z,60.55
2019-05-17T22:39:34.526Z,60.48
2019-05-17T22:44:37.879Z,60.40
2019-05-17T22:49:41.223Z,60.29
2019-05-17T22:54:44.568Z,60.37
2019-05-17T22:59:47.908Z,60.37
2019-05-17T23:04:51.211Z,60.38
2019-05-17T23:09:54.530Z,60.23
2019-05-17T23:14:57.894Z,60.32
2019-05-17T23:20:01.225Z,60.27
2019-05-17T23:25:06.678Z,60.22
2019-05-17T23:30:10.087Z,60.20
2019-05-17T23:35:13.415Z,60.09
2019-05-17T23:40:16.752Z,60.10
2019-05-17T23:45:20.086Z,60.17
2019-05-17T23:50:23.426Z,60.15
2019-05-17T23:55:26.768Z,60.09
